createdAt,value
2019-06-07T00:01:16.468Z,21.53
2019-06-07T00:03:45.643Z,21.53
2019-06-07T00:06:20.334Z,21.60
2019-06-07T00:08:45.942Z,21.59
2019-06-07T00:11:18.621Z,21.69
2019-06-07T00:13:46.226Z,21.47
2019-06-07T00:16:19.894Z,21.06
2019-06-07T00:18:46.476Z,21.45
2019-06-07T00:21:17.797Z,20.98
2019-06-07T00:23:46.820Z,21.07
2019-06-07T00:26:18.204Z,21.03
2019-06-07T00:28:47.350Z,21.27
2019-06-07T00:31:18.200Z,21.16
2019-06-07T00:33:47.829Z,21.37
2019-06-07T00:36:18.243Z,21.31
2019-06-07T00:38:48.151Z,21.14
2019-06-07T00:41:20.257Z,21.25
2019-06-07T00:43:48.428Z,21.00
2019-06-07T00:46:18.875Z,20.70
2019-06-07T00:48:48.661Z,20.51
2019-06-07T00:51:19.591Z,21.06
2019-06-07T00:53:48.970Z,21.22
2019-06-07T00:56:20.319Z,21.05
2019-06-07T00:59:09.822Z,20.92
2019-06-07T01:01:22.684Z,20.90
2019-06-07T01:03:51.428Z,21.07
2019-06-07T01:06:22.932Z,20.70
2019-06-07T01:08:51.831Z,20.81
2019-06-07T01:11:23.475Z,20.77
2019-06-07T01:13:52.141Z,20.70
2019-06-07T01:16:23.668Z,20.45
2019-06-07T01:18:52.407Z,20.45
2019-06-07T01:21:24.899Z,20.51
2019-06-07T01:24:11.015Z,20.36
2019-06-07T01:26:26.760Z,20.41
2019-06-07T01:28:54.633Z,20.23
2019-06-07T01:31:27.546Z,20.13
2019-06-07T01:33:54.912Z,20.28
2019-06-07T01:36:28.895Z,20.40
2019-06-07T01:38:55.239Z,20.52
2019-06-07T01:41:25.892Z,20.18
2019-06-07T01:43:55.419Z,20.09
2019-06-07T01:46:26.684Z,20.34
2019-06-07T01:48:55.665Z,20.27
2019-06-07T01:51:27.024Z,20.19
2019-06-07T01:54:41.015Z,20.29
2019-06-07T01:56:29.611Z,20.27
2019-06-07T01:58:58.003Z,20.04
2019-06-07T02:01:34.686Z,20.17
2019-06-07T02:03:58.255Z,19.47
2019-06-07T02:06:31.841Z,19.85
2019-06-07T02:08:58.549Z,19.51
2019-06-07T02:11:29.397Z,19.63
2019-06-07T02:13:58.916Z,19.75
2019-06-07T02:16:30.980Z,19.57
2019-06-07T02:19:01.982Z,19.58
2019-06-07T02:21:31.619Z,19.08
2019-06-07T02:24:01.228Z,19.48
2019-06-07T02:26:32.533Z,19.62
2019-06-07T02:29:01.606Z,19.71
2019-06-07T02:31:38.261Z,19.63
2019-06-07T02:34:01.945Z,19.61
2019-06-07T02:36:39.103Z,19.54
2019-06-07T02:39:02.310Z,19.86
2019-06-07T02:41:38.534Z,19.84
2019-06-07T02:44:02.774Z,19.87
2019-06-07T02:46:39.961Z,19.78
2019-06-07T02:49:03.082Z,19.82
2019-06-07T02:51:40.021Z,19.69
2019-06-07T02:54:03.359Z,19.98
2019-06-07T02:56:46.433Z,19.68
2019-06-07T02:59:03.849Z,19.85
2019-06-07T03:01:41.220Z,19.93
2019-06-07T03:04:05.337Z,19.87
2019-06-07T03:06:39.619Z,19.50
2019-06-07T03:09:08.794Z,19.74
2019-06-07T03:11:41.066Z,19.54
2019-06-07T03:14:11.897Z,19.93
2019-06-07T03:16:48.576Z,19.67
2019-06-07T03:19:28.993Z,19.74
2019-06-07T03:21:58.661Z,19.83
2019-06-07T03:24:33.151Z,19.86
2019-06-07T03:29:33.813Z,19.93
2019-06-07T03:32:03.131Z,19.68
2019-06-07T03:34:38.618Z,20.14
2019-06-07T03:37:03.638Z,20.23
2019-06-07T03:39:33.756Z,20.03
2019-06-07T03:42:06.647Z,20.12
2019-06-07T03:44:38.219Z,20.00
2019-06-07T03:47:06.615Z,19.87
2019-06-07T03:49:40.123Z,19.96
2019-06-07T03:52:07.199Z,20.12
2019-06-07T03:54:38.463Z,20.33
2019-06-07T03:57:07.821Z,20.12
2019-06-07T03:59:39.559Z,19.92
2019-06-07T04:02:10.457Z,20.04
2019-06-07T04:04:41.567Z,20.10
2019-06-07T04:07:10.731Z,19.85
2019-06-07T04:09:43.079Z,20.00
2019-06-07T04:12:11.431Z,20.18
2019-06-07T04:14:42.997Z,20.18
2019-06-07T04:18:00.473Z,20.07
2019-06-07T04:19:43.843Z,19.97
2019-06-07T04:22:13.265Z,19.96
2019-06-07T04:24:42.680Z,20.19
2019-06-07T04:27:19.185Z,19.94
2019-06-07T04:30:05.384Z,20.54
2019-06-07T04:32:15.539Z,20.34
2019-06-07T04:34:44.896Z,20.55
2019-06-07T04:37:14.459Z,21.35
2019-06-07T04:39:45.339Z,22.29
2019-06-07T04:42:18.010Z,25.27
2019-06-07T04:44:48.672Z,27.02
2019-06-07T04:47:39.629Z,28.00
2019-06-07T04:50:08.940Z,26.98
2019-06-07T04:52:42.619Z,26.45
2019-06-07T04:55:09.493Z,27.00
2019-06-07T04:57:40.425Z,28.75
2019-06-07T05:00:45.830Z,29.40
2019-06-07T05:02:43.248Z,30.02
2019-06-07T05:05:12.008Z,28.09
2019-06-07T05:07:46.144Z,24.28
2019-06-07T05:10:12.672Z,23.82
2019-06-07T05:12:44.308Z,23.46
2019-06-07T05:15:13.112Z,23.37
2019-06-07T05:17:44.862Z,23.10
2019-06-07T05:20:13.729Z,25.04
2019-06-07T05:22:45.339Z,27.98
2019-06-07T05:25:14.447Z,28.81
2019-06-07T05:27:46.762Z,27.40
2019-06-07T05:30:57.700Z,27.41
2019-06-07T05:32:47.596Z,25.72
2019-06-07T05:35:16.991Z,25.16
2019-06-07T05:37:46.234Z,24.87
2019-06-07T05:40:21.397Z,24.93
2019-06-07T05:42:50.959Z,24.71
2019-06-07T05:45:24.185Z,24.29
2019-06-07T05:47:53.436Z,24.29
2019-06-07T05:50:39.025Z,24.00
2019-06-07T05:52:56.299Z,24.56
2019-06-07T05:55:25.570Z,23.81
2019-06-07T05:57:54.829Z,24.87
2019-06-07T06:00:25.288Z,25.31
2019-06-07T06:03:04.821Z,24.36
2019-06-07T06:05:34.408Z,24.80
2019-06-07T06:07:57.843Z,24.92
2019-06-07T06:10:27.141Z,25.17
2019-06-07T06:12:56.403Z,24.46
2019-06-07T06:15:41.747Z,24.68
2019-06-07T06:17:56.999Z,24.31
2019-06-07T06:20:32.869Z,23.94
2019-06-07T06:22:57.414Z,25.17
2019-06-07T06:25:32.857Z,24.67
2019-06-07T06:28:11.631Z,24.66
2019-06-07T06:30:28.882Z,25.06
2019-06-07T06:32:58.929Z,25.21
2019-06-07T06:35:28.378Z,24.94
2019-06-07T06:37:57.662Z,25.35
2019-06-07T06:40:27.076Z,25.84
2019-06-07T06:42:56.408Z,25.34
2019-06-07T06:45:25.825Z,25.60
2019-06-07T06:47:55.148Z,26.16
2019-06-07T06:50:24.456Z,25.55
2019-06-07T06:52:54.897Z,26.14
2019-06-07T06:55:25.858Z,26.08
2019-06-07T06:57:55.149Z,26.11
2019-06-07T07:00:52.550Z,26.44
2019-06-07T07:05:49.957Z,25.95
2019-06-07T07:08:17.639Z,26.73
2019-06-07T07:10:51.190Z,26.38
2019-06-07T07:13:18.365Z,25.81
2019-06-07T07:15:51.041Z,26.75
2019-06-07T07:18:18.633Z,26.50
2019-06-07T07:20:50.418Z,26.59
2019-06-07T07:23:18.936Z,26.40
2019-06-07T07:25:53.632Z,26.82
2019-06-07T07:28:19.288Z,26.44
2019-06-07T07:30:54.445Z,25.79
2019-06-07T07:33:21.626Z,26.01
2019-06-07T07:36:18.510Z,25.99
2019-06-07T07:38:21.938Z,26.10
2019-06-07T07:41:13.967Z,25.76
2019-06-07T07:43:22.354Z,25.52
2019-06-07T07:45:59.258Z,25.76
2019-06-07T07:48:22.617Z,26.42
2019-06-07T07:50:59.241Z,26.69
2019-06-07T07:53:22.979Z,27.10
2019-06-07T07:55:54.960Z,26.19
2019-06-07T07:58:23.344Z,26.02
2019-06-07T08:01:00.692Z,26.44
2019-06-07T08:03:23.666Z,26.92
2019-06-07T08:05:56.790Z,26.76
2019-06-07T08:08:24.043Z,26.20
2019-06-07T08:10:56.456Z,26.89
2019-06-07T08:13:27.410Z,26.46
2019-06-07T08:15:59.227Z,26.70
2019-06-07T08:18:26.478Z,27.05
2019-06-07T08:21:15.370Z,26.70
2019-06-07T08:23:26.770Z,26.05
2019-06-07T08:26:00.028Z,27.01
2019-06-07T08:28:27.226Z,27.61
2019-06-07T08:31:05.565Z,26.69
2019-06-07T08:33:27.526Z,27.63
2019-06-07T08:36:10.314Z,27.43
2019-06-07T08:38:46.479Z,26.33
2019-06-07T08:41:10.294Z,25.87
2019-06-07T08:43:30.013Z,27.04
2019-06-07T08:46:06.048Z,26.91
2019-06-07T08:48:30.558Z,26.96
2019-06-07T08:51:06.542Z,27.36
2019-06-07T08:53:30.823Z,26.84
2019-06-07T08:56:06.898Z,27.15
2019-06-07T08:58:31.207Z,27.01
2019-06-07T09:01:07.847Z,27.12
2019-06-07T09:03:32.611Z,27.05
2019-06-07T09:06:16.333Z,26.86
2019-06-07T09:08:33.010Z,27.69
2019-06-07T09:11:10.267Z,27.07
2019-06-07T09:13:36.745Z,27.48
2019-06-07T09:16:08.794Z,26.61
2019-06-07T09:18:43.588Z,28.14
2019-06-07T09:21:09.781Z,27.85
2019-06-07T09:23:39.260Z,27.65
2019-06-07T09:26:17.971Z,27.70
2019-06-07T09:28:39.717Z,28.25
2019-06-07T09:31:11.917Z,27.48
2019-06-07T09:33:40.113Z,27.69
2019-06-07T09:36:12.827Z,28.25
2019-06-07T09:38:40.839Z,28.79
2019-06-07T09:41:10.191Z,28.45
2019-06-07T09:44:01.879Z,28.17
2019-06-07T09:46:45.157Z,27.90
2019-06-07T09:49:28.865Z,28.19
2019-06-07T09:51:45.442Z,28.04
2019-06-07T09:55:02.448Z,28.62
2019-06-07T09:56:46.433Z,28.43
2019-06-07T09:59:15.812Z,28.48
2019-06-07T10:01:47.023Z,29.17
2019-06-07T10:04:30.905Z,28.97
2019-06-07T10:06:51.638Z,28.74
2019-06-07T10:10:09.335Z,27.83
2019-06-07T10:12:00.271Z,28.40
2019-06-07T10:14:30.169Z,28.35
2019-06-07T10:17:00.949Z,27.63
2019-06-07T10:19:30.227Z,29.01
2019-06-07T10:21:59.812Z,29.36
2019-06-07T10:24:30.563Z,28.94
2019-06-07T10:26:59.903Z,29.83
2019-06-07T10:29:29.226Z,29.97
2019-06-07T10:34:49.002Z,28.21
2019-06-07T10:37:18.342Z,30.17
2019-06-07T10:39:49.288Z,29.21
2019-06-07T10:42:18.753Z,29.17
2019-06-07T10:44:48.017Z,29.60
2019-06-07T10:47:17.329Z,29.91
2019-06-07T10:49:46.681Z,30.24
2019-06-07T10:52:15.988Z,30.15
2019-06-07T10:54:45.253Z,29.75
2019-06-07T10:57:16.228Z,28.74
2019-06-07T10:59:45.630Z,29.69
2019-06-07T11:02:14.997Z,30.50
2019-06-07T11:04:44.325Z,30.20
2019-06-07T11:07:17.206Z,29.90
2019-06-07T11:09:46.620Z,30.72
2019-06-07T11:12:15.954Z,30.27
2019-06-07T11:14:45.247Z,30.10
2019-06-07T11:17:15.754Z,30.59
2019-06-07T11:19:45.314Z,30.52
2019-06-07T11:22:14.614Z,30.94
2019-06-07T11:24:44.608Z,31.05
2019-06-07T11:27:16.210Z,30.49
2019-06-07T11:29:45.037Z,30.72
2019-06-07T11:32:14.669Z,30.81
2019-06-07T11:34:44.636Z,30.92
2019-06-07T11:37:15.936Z,30.53
2019-06-07T11:39:45.156Z,29.89
2019-06-07T11:42:14.537Z,31.19
2019-06-07T11:44:56.181Z,30.88
2019-06-07T11:47:14.959Z,31.27
2019-06-07T11:49:44.306Z,31.67
2019-06-07T11:52:13.991Z,30.92
2019-06-07T11:54:47.758Z,31.15
2019-06-07T11:57:15.214Z,31.89
2019-06-07T11:59:44.578Z,31.47
2019-06-07T12:02:13.878Z,31.73
2019-06-07T12:04:43.224Z,31.84
2019-06-07T12:07:14.182Z,31.28
2019-06-07T12:09:56.069Z,31.41
2019-06-07T12:12:14.776Z,31.50
2019-06-07T12:14:44.133Z,31.58
2019-06-07T12:17:13.518Z,31.71
2019-06-07T12:19:44.403Z,31.75
2019-06-07T12:22:14.156Z,32.54
2019-06-07T12:24:43.569Z,32.01
2019-06-07T12:27:12.927Z,32.63
2019-06-07T12:29:42.244Z,31.91
2019-06-07T12:32:11.534Z,32.14
2019-06-07T12:34:40.914Z,32.16
2019-06-07T12:37:11.629Z,32.13
2019-06-07T12:39:41.033Z,32.13
2019-06-07T12:42:10.329Z,32.27
2019-06-07T12:44:39.672Z,32.30
2019-06-07T12:47:08.967Z,32.46
2019-06-07T12:49:38.280Z,33.09
2019-06-07T12:52:14.599Z,33.28
2019-06-07T12:54:42.972Z,33.09
2019-06-07T12:57:13.708Z,33.09
2019-06-07T12:59:43.286Z,32.99
2019-06-07T13:02:14.130Z,33.02
2019-06-07T13:04:43.498Z,32.64
2019-06-07T13:07:12.794Z,33.69
2019-06-07T13:09:42.148Z,33.47
2019-06-07T13:12:11.482Z,33.16
2019-06-07T13:14:40.863Z,33.50
2019-06-07T13:17:10.185Z,34.03
2019-06-07T13:19:39.507Z,34.41
2019-06-07T13:22:08.838Z,34.55
2019-06-07T13:24:38.141Z,34.61
2019-06-07T13:27:07.540Z,33.72
2019-06-07T13:29:36.853Z,33.50
2019-06-07T13:32:06.201Z,34.12
2019-06-07T13:34:35.482Z,34.74
2019-06-07T13:37:04.816Z,34.26
2019-06-07T13:39:34.137Z,33.97
2019-06-07T13:42:03.455Z,33.70
2019-06-07T13:44:32.743Z,33.38
2019-06-07T13:47:02.099Z,33.41
2019-06-07T13:49:31.412Z,33.78
2019-06-07T13:52:00.724Z,33.45
2019-06-07T13:54:30.012Z,33.65
2019-06-07T13:57:02.559Z,34.21
2019-06-07T13:59:30.353Z,33.93
2019-06-07T14:01:59.665Z,34.37
2019-06-07T14:04:29.155Z,33.95
2019-06-07T14:06:58.475Z,32.88
2019-06-07T14:09:29.717Z,33.14
2019-06-07T14:11:59.225Z,32.87
2019-06-07T14:14:29.500Z,32.46
2019-06-07T14:16:59.693Z,32.54
2019-06-07T14:19:29.001Z,32.37
2019-06-07T14:21:58.296Z,32.12
2019-06-07T14:24:27.657Z,32.76
2019-06-07T14:27:09.057Z,32.96
2019-06-07T14:29:38.971Z,32.88
2019-06-07T14:32:08.673Z,32.61
2019-06-07T14:34:38.120Z,32.89
2019-06-07T14:37:07.532Z,32.23
2019-06-07T14:39:36.842Z,31.95
2019-06-07T14:42:09.677Z,32.46
2019-06-07T14:44:37.225Z,32.00
2019-06-07T14:47:06.616Z,32.31
2019-06-07T14:49:35.977Z,32.69
2019-06-07T14:52:05.318Z,34.47
2019-06-07T14:54:38.912Z,33.33
2019-06-07T14:57:06.251Z,32.87
2019-06-07T14:59:35.595Z,33.48
2019-06-07T15:02:04.891Z,34.08
2019-06-07T15:04:34.812Z,33.31
2019-06-07T15:07:05.726Z,33.37
2019-06-07T15:09:35.261Z,32.54
2019-06-07T15:12:04.863Z,33.22
2019-06-07T15:14:35.405Z,33.24
2019-06-07T15:17:04.886Z,33.00
2019-06-07T15:19:36.376Z,33.00
2019-06-07T15:22:05.516Z,32.84
2019-06-07T15:24:37.771Z,32.85
2019-06-07T15:27:06.091Z,32.25
2019-06-07T15:29:38.335Z,31.80
2019-06-07T15:32:06.838Z,30.90
2019-06-07T15:34:36.394Z,30.70
2019-06-07T15:37:05.960Z,28.88
2019-06-07T15:39:38.838Z,29.06
2019-06-07T15:42:09.322Z,28.53
2019-06-07T15:44:57.038Z,29.02
2019-06-07T15:47:30.011Z,29.28
2019-06-07T15:49:59.542Z,29.66
2019-06-07T15:52:38.329Z,29.16
2019-06-07T15:55:13.489Z,28.80
2019-06-07T15:57:52.761Z,27.51
2019-06-07T16:00:22.368Z,26.63
2019-06-07T16:02:52.425Z,26.48
2019-06-07T16:05:25.497Z,26.19
2019-06-07T16:07:58.072Z,26.11
2019-06-07T16:10:28.014Z,26.68
2019-06-07T16:13:01.634Z,25.71
2019-06-07T16:15:32.994Z,26.59
2019-06-07T16:18:14.376Z,26.05
2019-06-07T16:20:43.970Z,25.63
2019-06-07T16:23:13.388Z,25.34
2019-06-07T16:25:47.621Z,25.56
2019-06-07T16:28:16.918Z,26.38
2019-06-07T16:30:47.330Z,25.68
2019-06-07T16:33:16.680Z,25.40
2019-06-07T16:35:46.967Z,26.23
2019-06-07T16:38:16.312Z,26.21
2019-06-07T16:40:45.691Z,27.00
2019-06-07T16:43:17.736Z,25.61
2019-06-07T16:45:49.074Z,26.40
2019-06-07T16:48:20.533Z,25.67
2019-06-07T16:50:50.016Z,25.82
2019-06-07T16:53:26.665Z,25.94
2019-06-07T16:55:59.823Z,25.70
2019-06-07T16:58:29.683Z,25.35
2019-06-07T17:01:07.624Z,25.59
2019-06-07T17:03:41.492Z,25.58
2019-06-07T17:06:15.512Z,24.69
2019-06-07T17:08:46.616Z,24.77
2019-06-07T17:11:16.049Z,24.76
2019-06-07T17:13:49.476Z,24.36
2019-06-07T17:16:21.650Z,24.91
2019-06-07T17:18:51.719Z,24.99
2019-06-07T17:21:21.096Z,24.46
2019-06-07T17:23:54.929Z,25.16
2019-06-07T17:26:25.633Z,24.37
2019-06-07T17:28:54.994Z,25.33
2019-06-07T17:31:26.689Z,25.85
2019-06-07T17:33:56.205Z,25.73
2019-06-07T17:36:28.885Z,25.03
2019-06-07T17:39:07.267Z,25.69
2019-06-07T17:41:55.163Z,25.71
2019-06-07T17:44:22.326Z,25.35
2019-06-07T17:47:04.042Z,25.53
2019-06-07T17:49:38.777Z,25.23
2019-06-07T17:52:21.194Z,24.96
2019-06-07T17:55:04.070Z,25.62
2019-06-07T17:57:39.653Z,25.16
2019-06-07T18:00:33.098Z,24.24
2019-06-07T18:03:05.367Z,24.66
2019-06-07T18:05:51.397Z,25.04
2019-06-07T18:08:19.228Z,24.98
2019-06-07T18:10:52.086Z,25.06
2019-06-07T18:13:25.661Z,23.94
2019-06-07T18:16:20.049Z,24.99
2019-06-07T18:19:04.187Z,24.60
2019-06-07T18:21:47.113Z,24.31
2019-06-07T18:24:21.054Z,24.82
2019-06-07T18:27:24.729Z,25.03
2019-06-07T18:30:10.606Z,24.62
2019-06-07T18:32:28.246Z,23.90
2019-06-07T18:35:01.579Z,24.12
2019-06-07T18:37:31.339Z,24.76
2019-06-07T18:40:01.676Z,24.26
2019-06-07T18:42:31.582Z,24.34
2019-06-07T18:45:01.700Z,24.31
2019-06-07T18:47:32.137Z,24.06
2019-06-07T18:50:11.157Z,24.24
2019-06-07T18:59:42.336Z,23.04
2019-06-07T19:02:24.306Z,23.71
2019-06-07T19:05:00.598Z,23.83
2019-06-07T19:07:22.740Z,24.49
2019-06-07T19:09:57.171Z,23.49
2019-06-07T19:12:35.584Z,23.78
2019-06-07T19:15:07.445Z,24.42
2019-06-07T19:17:46.981Z,23.98
2019-06-07T19:20:25.994Z,23.63
2019-06-07T19:23:04.530Z,24.13
2019-06-07T19:25:42.398Z,24.14
2019-06-07T19:28:20.993Z,24.45
2019-06-07T19:30:55.008Z,23.70
2019-06-07T19:33:48.401Z,23.90
2019-06-07T19:35:56.016Z,23.57
2019-06-07T19:38:26.923Z,24.05
2019-06-07T19:40:57.909Z,23.66
2019-06-07T19:43:43.786Z,23.97
2019-06-07T19:46:22.584Z,23.62
2019-06-07T19:49:10.262Z,23.28
2019-06-07T19:51:57.042Z,23.19
2019-06-07T19:54:49.710Z,23.23
2019-06-07T19:57:50.321Z,23.76
2019-06-07T20:00:13.183Z,23.43
2019-06-07T20:03:04.483Z,23.44
2019-06-07T20:05:36.689Z,23.34
2019-06-07T20:08:11.335Z,23.74
2019-06-07T20:10:58.938Z,23.48
2019-06-07T20:13:35.625Z,23.35
2019-06-07T20:16:11.162Z,23.49
2019-06-07T20:18:45.614Z,23.73
2019-06-07T20:22:09.461Z,23.37
2019-06-07T20:24:25.979Z,23.42
2019-06-07T20:26:58.216Z,23.47
2019-06-07T20:29:30.259Z,23.24
2019-06-07T20:32:09.337Z,23.72
2019-06-07T20:34:43.772Z,23.46
2019-06-07T20:37:10.395Z,23.30
2019-06-07T20:39:41.414Z,23.35
2019-06-07T20:42:10.916Z,23.02
2019-06-07T20:44:48.895Z,23.32
2019-06-07T20:47:22.341Z,22.91
2019-06-07T20:50:02.377Z,22.98
2019-06-07T20:52:37.574Z,23.08
2019-06-07T20:55:18.118Z,23.62
2019-06-07T20:58:12.947Z,23.22
2019-06-07T21:00:36.952Z,23.39
2019-06-07T21:03:07.389Z,22.84
2019-06-07T21:05:51.181Z,22.79
2019-06-07T21:08:20.526Z,23.30
2019-06-07T21:10:57.419Z,22.83
2019-06-07T21:14:31.809Z,22.69
2019-06-07T21:16:10.831Z,23.04
2019-06-07T21:18:45.273Z,22.94
2019-06-07T21:21:25.424Z,22.66
2019-06-07T21:23:53.604Z,22.75
2019-06-07T21:26:36.406Z,22.99
2019-06-07T21:29:03.473Z,22.85
2019-06-07T21:31:34.542Z,22.74
2019-06-07T21:34:09.299Z,22.45
2019-06-07T21:36:49.481Z,21.99
2019-06-07T21:39:24.615Z,22.58
2019-06-07T21:41:44.278Z,22.55
2019-06-07T21:44:13.859Z,22.39
2019-06-07T21:46:43.538Z,22.39
2019-06-07T21:49:17.411Z,22.50
2019-06-07T21:52:06.491Z,22.02
2019-06-07T21:54:36.275Z,22.39
2019-06-07T21:57:06.907Z,22.27
2019-06-07T21:59:36.370Z,22.21
2019-06-07T22:02:07.568Z,22.27
2019-06-07T22:04:41.801Z,22.37
2019-06-07T22:07:16.821Z,22.60
2019-06-07T22:09:57.894Z,22.30
2019-06-07T22:12:30.345Z,22.10
2019-06-07T22:14:59.879Z,22.17
2019-06-07T22:17:37.281Z,22.48
2019-06-07T22:20:01.014Z,22.40
2019-06-07T22:22:30.432Z,22.81
2019-06-07T22:25:01.793Z,22.17
2019-06-07T22:27:31.249Z,22.55
2019-06-07T22:30:00.748Z,22.26
2019-06-07T22:32:32.648Z,22.24
2019-06-07T22:35:03.518Z,22.01
2019-06-07T22:37:35.756Z,22.44
2019-06-07T22:40:06.257Z,22.65
2019-06-07T22:42:35.887Z,22.58
2019-06-07T22:45:05.611Z,22.37
2019-06-07T22:47:36.929Z,22.21
2019-06-07T22:50:06.582Z,22.22
2019-06-07T22:52:36.064Z,22.91
2019-06-07T22:55:10.087Z,22.48
2019-06-07T22:58:02.567Z,22.29
2019-06-07T23:00:33.586Z,22.22
2019-06-07T23:03:08.473Z,22.74
2019-06-07T23:05:36.470Z,22.80
2019-06-07T23:08:08.803Z,22.65
2019-06-07T23:11:09.082Z,22.87
2019-06-07T23:13:11.231Z,22.57
2019-06-07T23:15:40.887Z,22.93
2019-06-07T23:18:11.850Z,23.10
2019-06-07T23:20:41.374Z,23.20
2019-06-07T23:23:12.052Z,23.30
2019-06-07T23:25:43.699Z,22.93
2019-06-07T23:28:14.335Z,22.71
2019-06-07T23:30:43.980Z,22.62
2019-06-07T23:33:22.743Z,22.91
2019-06-07T23:36:14.967Z,23.22
2019-06-07T23:38:44.469Z,23.38
2019-06-07T23:41:13.889Z,22.93
2019-06-07T23:43:49.126Z,22.59
2019-06-07T23:46:21.652Z,22.65
2019-06-07T23:48:50.267Z,22.96
2019-06-07T23:51:19.721Z,23.00
2019-06-07T23:53:48.995Z,23.43
2019-06-07T23:56:18.832Z,23.19
2019-06-07T23:58:48.566Z,22.99
